createdAt,value
2018-06-21T00:00:07.737Z,20.65
2018-06-21T00:05:04.409Z,20.55
2018-06-21T00:10:00.224Z,20.63
2018-06-21T00:14:57.058Z,20.48
2018-06-21T00:19:52.774Z,20.50
2018-06-21T00:24:49.755Z,20.43
2018-06-21T00:29:45.510Z,20.29
2018-06-21T00:34:41.412Z,20.24
2018-06-21T00:39:37.756Z,20.22
2018-06-21T00:44:33.792Z,20.02
2018-06-21T00:49:29.713Z,19.99
2018-06-21T00:54:25.778Z,20.02
2018-06-21T00:59:22.196Z,20.03
2018-06-21T01:04:18.346Z,20.03
2018-06-21T01:09:14.180Z,20.04
2018-06-21T01:14:11.497Z,20.06
2018-06-21T01:19:07.105Z,19.86
2018-06-21T01:24:03.004Z,19.62
2018-06-21T01:28:59.168Z,19.58
2018-06-21T01:33:56.249Z,19.44
2018-06-21T01:38:51.763Z,19.29
2018-06-21T01:43:48.475Z,19.26
2018-06-21T01:48:44.067Z,19.12
2018-06-21T01:53:39.720Z,19.12
2018-06-21T01:58:37.047Z,19.11
2018-06-21T02:03:32.600Z,18.96
2018-06-21T02:08:29.329Z,18.98
2018-06-21T02:13:24.789Z,19.04
2018-06-21T02:18:21.532Z,18.96
2018-06-21T02:23:17.610Z,18.84
2018-06-21T02:28:13.332Z,18.99
2018-06-21T02:33:10.818Z,18.90
2018-06-21T02:38:06.257Z,18.89
2018-06-21T02:43:03.026Z,18.80
2018-06-21T02:47:58.649Z,19.12
2018-06-21T02:52:55.509Z,18.98
2018-06-21T02:57:51.404Z,19.00
2018-06-21T03:02:47.517Z,18.90
2018-06-21T03:07:44.517Z,18.70
2018-06-21T03:12:40.095Z,18.66
2018-06-21T03:17:37.149Z,18.68
2018-06-21T03:22:34.191Z,18.60
2018-06-21T03:27:29.708Z,18.43
2018-06-21T03:32:25.640Z,18.53
2018-06-21T03:37:21.480Z,18.43
2018-06-21T03:42:17.581Z,18.45
2018-06-21T03:47:14.470Z,18.40
2018-06-21T03:52:11.744Z,18.44
2018-06-21T03:57:08.327Z,18.49
2018-06-21T04:02:05.089Z,18.53
2018-06-21T04:07:01.843Z,18.55
2018-06-21T04:11:57.484Z,18.62
2018-06-21T04:16:53.155Z,18.71
2018-06-21T04:21:50.076Z,18.89
2018-06-21T04:26:46.172Z,18.90
2018-06-21T04:31:43.142Z,18.83
2018-06-21T04:36:39.710Z,18.81
2018-06-21T04:41:36.407Z,18.92
2018-06-21T04:46:32.558Z,18.89
2018-06-21T04:51:28.224Z,18.92
2018-06-21T04:56:25.577Z,19.02
2018-06-21T05:01:21.314Z,19.07
2018-06-21T05:06:18.651Z,18.88
2018-06-21T05:11:14.068Z,18.98
2018-06-21T05:16:10.325Z,18.89
2018-06-21T05:21:06.176Z,18.89
2018-06-21T05:26:02.673Z,18.68
2018-06-21T05:30:58.470Z,18.68
2018-06-21T05:35:54.400Z,18.60
2018-06-21T05:40:51.039Z,18.53
2018-06-21T05:45:46.686Z,18.47
2018-06-21T05:50:43.367Z,18.52
2018-06-21T05:55:42.422Z,18.49
2018-06-21T06:00:39.119Z,18.47
2018-06-21T06:05:35.783Z,18.45
2018-06-21T06:10:31.326Z,18.33
2018-06-21T06:15:26.891Z,18.11
2018-06-21T06:20:23.775Z,17.89
2018-06-21T06:25:19.271Z,17.92
2018-06-21T06:30:15.302Z,17.94
2018-06-21T06:35:11.172Z,17.85
2018-06-21T06:40:07.100Z,17.80
2018-06-21T06:45:02.976Z,17.52
2018-06-21T06:49:58.777Z,17.86
2018-06-21T06:54:54.941Z,17.74
2018-06-21T06:59:51.089Z,17.70
2018-06-21T07:04:47.058Z,17.57
2018-06-21T07:09:42.775Z,17.48
2018-06-21T07:14:39.979Z,17.70
2018-06-21T07:19:35.333Z,17.49
2018-06-21T07:24:31.498Z,17.52
2018-06-21T07:29:27.388Z,17.36
2018-06-21T07:34:23.347Z,17.45
2018-06-21T07:39:20.584Z,17.38
2018-06-21T07:44:16.715Z,17.60
2018-06-21T07:49:12.837Z,17.60
2018-06-21T07:54:09.761Z,17.71
2018-06-21T07:59:07.591Z,17.71
2018-06-21T08:04:03.504Z,18.01
2018-06-21T08:09:01.523Z,18.55
2018-06-21T08:14:00.637Z,19.47
2018-06-21T08:18:56.713Z,19.81
2018-06-21T08:23:54.602Z,20.14
2018-06-21T08:28:50.546Z,19.73
2018-06-21T08:33:45.592Z,18.99
2018-06-21T08:38:41.346Z,18.81
2018-06-21T08:43:38.984Z,19.29
2018-06-21T08:48:36.858Z,19.77
2018-06-21T08:53:31.977Z,18.88
2018-06-21T08:58:28.851Z,20.02
2018-06-21T09:03:26.488Z,20.60
2018-06-21T09:08:23.810Z,20.29
2018-06-21T09:13:20.819Z,20.55
2018-06-21T09:18:16.665Z,20.24
2018-06-21T09:23:15.360Z,20.02
2018-06-21T09:28:09.050Z,19.02
2018-06-21T09:33:04.005Z,17.98
2018-06-21T09:37:59.564Z,17.79
2018-06-21T09:42:57.050Z,18.31
2018-06-21T09:47:58.248Z,19.79
2018-06-21T09:52:56.734Z,20.66
2018-06-21T09:57:54.925Z,21.98
2018-06-21T10:02:52.134Z,21.51
2018-06-21T10:07:45.594Z,20.55
2018-06-21T10:12:42.544Z,19.51
2018-06-21T10:17:37.848Z,19.63
2018-06-21T10:22:36.510Z,21.50
2018-06-21T10:27:34.861Z,21.30
2018-06-21T10:32:32.582Z,22.17
2018-06-21T10:37:29.705Z,22.69
2018-06-21T10:42:26.205Z,21.91
2018-06-21T10:47:21.143Z,21.79
2018-06-21T10:52:20.548Z,22.55
2018-06-21T10:57:18.850Z,23.21
2018-06-21T11:02:15.337Z,21.24
2018-06-21T11:07:08.362Z,20.93
2018-06-21T11:12:06.757Z,21.14
2018-06-21T11:17:02.675Z,21.25
2018-06-21T11:21:57.059Z,20.47
2018-06-21T11:26:53.241Z,20.03
2018-06-21T11:31:49.098Z,21.36
2018-06-21T11:36:49.298Z,21.03
2018-06-21T11:41:43.518Z,21.25
2018-06-21T11:46:44.370Z,22.68
2018-06-21T11:51:41.986Z,23.23
2018-06-21T11:56:35.757Z,21.35
2018-06-21T12:01:35.417Z,22.93
2018-06-21T12:06:33.767Z,23.76
2018-06-21T12:11:26.084Z,21.35
2018-06-21T12:16:22.089Z,22.17
2018-06-21T12:21:20.431Z,22.25
2018-06-21T12:26:16.176Z,21.05
2018-06-21T12:31:11.922Z,21.21
2018-06-21T12:36:06.161Z,20.11
2018-06-21T12:41:01.150Z,20.72
2018-06-21T12:45:59.150Z,20.69
2018-06-21T12:50:53.032Z,20.80
2018-06-21T12:55:48.890Z,20.25
2018-06-21T13:00:47.762Z,21.40
2018-06-21T13:05:42.959Z,20.84
2018-06-21T13:10:40.686Z,22.28
2018-06-21T13:15:38.759Z,22.26
2018-06-21T13:20:34.748Z,21.93
2018-06-21T13:25:30.643Z,22.00
2018-06-21T13:30:26.257Z,21.77
2018-06-21T13:35:21.853Z,21.54
2018-06-21T13:40:17.112Z,20.85
2018-06-21T13:45:14.061Z,20.62
2018-06-21T13:50:10.190Z,20.63
2018-06-21T13:55:06.236Z,20.55
2018-06-21T14:00:01.212Z,19.71
2018-06-21T14:04:56.614Z,19.31
2018-06-21T14:09:52.227Z,19.47
2018-06-21T14:14:47.122Z,19.11
2018-06-21T14:19:42.158Z,18.95
2018-06-21T14:24:37.649Z,18.95
2018-06-21T14:29:34.648Z,18.89
2018-06-21T14:34:30.566Z,18.98
2018-06-21T14:39:26.696Z,18.99
2018-06-21T14:44:22.684Z,18.68
2018-06-21T14:49:19.745Z,18.65
2018-06-21T14:54:16.104Z,18.45
2018-06-21T14:59:12.477Z,18.29
2018-06-21T15:04:08.332Z,18.15
2018-06-21T15:09:04.621Z,18.22
2018-06-21T15:14:00.849Z,18.28
2018-06-21T15:18:57.270Z,17.74
2018-06-21T15:23:53.160Z,17.68
2018-06-21T15:28:49.277Z,17.51
2018-06-21T15:33:44.753Z,17.65
2018-06-21T15:38:40.902Z,17.51
2018-06-21T15:43:36.388Z,17.83
2018-06-21T15:48:31.998Z,17.95
2018-06-21T15:53:27.867Z,17.71
2018-06-21T15:58:23.932Z,17.67
2018-06-21T16:03:19.727Z,17.74
2018-06-21T16:08:16.941Z,17.95
2018-06-21T16:13:12.589Z,18.04
2018-06-21T16:18:08.496Z,18.13
2018-06-21T16:23:05.193Z,18.25
2018-06-21T16:28:01.022Z,18.03
2018-06-21T16:32:57.468Z,17.98
2018-06-21T16:37:53.244Z,17.85
2018-06-21T16:42:49.889Z,17.54
2018-06-21T16:47:45.930Z,17.36
2018-06-21T16:52:41.900Z,17.23
2018-06-21T16:57:37.701Z,16.90
2018-06-21T17:02:33.340Z,17.09
2018-06-21T17:07:29.451Z,17.33
2018-06-21T17:12:25.222Z,17.27
2018-06-21T17:17:21.278Z,17.24
2018-06-21T17:22:16.933Z,17.08
2018-06-21T17:27:13.848Z,17.14
2018-06-21T17:32:09.391Z,16.97
2018-06-21T17:37:06.451Z,17.04
2018-06-21T17:42:02.036Z,17.29
2018-06-21T17:46:58.885Z,17.20
2018-06-21T17:51:55.193Z,16.86
2018-06-21T17:56:50.704Z,16.93
2018-06-21T18:01:46.706Z,16.76
2018-06-21T18:06:43.196Z,16.35
2018-06-21T18:11:38.837Z,16.12
2018-06-21T18:16:35.193Z,16.04
2018-06-21T18:21:31.896Z,16.13
2018-06-21T18:26:28.127Z,15.98
2018-06-21T18:31:25.005Z,15.76
2018-06-21T18:36:20.441Z,15.91
2018-06-21T18:41:17.003Z,15.51
2018-06-21T18:46:12.638Z,15.35
2018-06-21T18:51:09.378Z,15.19
2018-06-21T18:56:04.576Z,15.22
2018-06-21T19:01:00.510Z,15.10
2018-06-21T19:05:56.070Z,14.92
2018-06-21T19:10:52.783Z,14.77
2018-06-21T19:15:47.936Z,14.63
2018-06-21T19:20:43.590Z,14.51
2018-06-21T19:25:39.540Z,14.33
2018-06-21T19:30:36.355Z,14.48
2018-06-21T19:35:32.045Z,14.17
2018-06-21T19:40:27.754Z,14.18
2018-06-21T19:45:23.392Z,13.97
2018-06-21T19:50:18.858Z,13.74
2018-06-21T19:55:14.785Z,13.65
2018-06-21T20:00:11.838Z,13.57
2018-06-21T20:05:07.121Z,13.78
2018-06-21T20:10:03.432Z,13.65
2018-06-21T20:14:59.083Z,13.54
2018-06-21T20:19:54.491Z,13.25
2018-06-21T20:24:50.464Z,13.31
2018-06-21T20:29:46.297Z,13.65
2018-06-21T20:34:42.178Z,13.41
2018-06-21T20:39:38.321Z,13.30
2018-06-21T20:44:35.310Z,13.25
2018-06-21T20:49:30.700Z,13.22
2018-06-21T20:54:27.681Z,13.12
2018-06-21T20:59:23.195Z,13.12
2018-06-21T21:04:18.806Z,13.12
2018-06-21T21:09:14.910Z,13.12
2018-06-21T21:14:11.548Z,12.95
2018-06-21T21:19:07.978Z,12.85
2018-06-21T21:24:02.921Z,12.80
2018-06-21T21:28:59.170Z,13.04
2018-06-21T21:33:54.953Z,12.83
2018-06-21T21:38:50.588Z,12.78
2018-06-21T21:43:46.389Z,12.93
2018-06-21T21:48:43.630Z,12.70
2018-06-21T21:53:38.820Z,12.68
2018-06-21T21:58:34.759Z,12.65
2018-06-21T22:03:30.597Z,12.60
2018-06-21T22:08:27.565Z,12.68
2018-06-21T22:13:23.481Z,12.85
2018-06-21T22:18:19.461Z,12.87
2018-06-21T22:23:15.943Z,13.01
2018-06-21T22:28:12.681Z,12.85
2018-06-21T22:33:08.554Z,12.82
2018-06-21T22:38:05.848Z,12.98
2018-06-21T22:43:01.525Z,12.76
2018-06-21T22:47:57.092Z,13.03
2018-06-21T22:52:53.228Z,12.93
2018-06-21T22:57:50.011Z,12.97
2018-06-21T23:02:45.517Z,12.98
2018-06-21T23:07:42.492Z,12.94
2018-06-21T23:12:38.139Z,12.93
2018-06-21T23:17:34.017Z,13.18
2018-06-21T23:22:29.977Z,13.03
2018-06-21T23:27:25.823Z,13.01
2018-06-21T23:32:21.510Z,12.87
2018-06-21T23:37:18.375Z,12.82
2018-06-21T23:42:14.937Z,12.70
2018-06-21T23:47:10.374Z,12.82
2018-06-21T23:52:06.283Z,12.60
2018-06-21T23:57:03.084Z,12.55
